Time;durP1;ratioP1;P1;durP2;ratioP2;P2;SDS_P1;SDS_P2;PMS_P1;PMS_P2;Temp;Humidity;BMP_temperature;BMP_pressure;BME280_temperature;BME280_humidity;BME280_pressure;Samples;Min_cycle;Max_cycle;Signal;HPM_P1;HPM_P2
2021/07/30 00:00:09;;;;;;;;;;;;;;;20.79;65.32;99292.75;5051541;28;876;-59
2021/07/30 00:02:36;;;;;;;;;;;;;;;20.82;65.61;99291.00;5051575;28;798;-59
2021/07/30 00:05:03;;;;;;;;;;;;;;;20.75;65.81;99286.56;5051755;28;811;-59
2021/07/30 00:07:30;;;;;;;;;;;;;;;20.80;65.89;99279.47;5051511;28;834;-58
2021/07/30 00:09:57;;;;;;;;;;;;;;;20.98;65.46;99281.31;5051406;28;1882;-58
2021/07/30 00:12:23;;;;;;;;;;;;;;;21.10;65.33;99282.25;5051454;28;888;-59
2021/07/30 00:14:50;;;;;;;;;;;;;;;21.17;65.31;99281.84;5033385;28;2050;-59
2021/07/30 00:17:17;;;;;;;;;;;;;;;21.24;64.76;99273.00;5051435;28;799;-59
2021/07/30 00:19:44;;;;;;;;;;;;;;;21.27;65.13;99269.22;5051269;28;899;-59
2021/07/30 00:22:11;;;;;;;;;;;;;;;21.31;64.67;99278.22;5051337;28;1010;-58
2021/07/30 00:24:38;;;;;;;;;;;;;;;21.36;64.76;99280.34;5051228;28;815;-59
2021/07/30 00:27:05;;;;;;;;;;;;;;;21.37;64.80;99276.25;5051350;28;806;-58
2021/07/30 00:29:32;;;;;;;;;;;;;;;21.38;64.59;99263.75;5052849;28;1910;-59
2021/07/30 00:31:59;;;;;;;;;;;;;;;21.47;64.58;99262.13;5055411;28;826;-59
2021/07/30 00:34:25;;;;;;;;;;;;;;;21.56;64.35;99265.56;5055226;28;890;-59
2021/07/30 00:36:52;;;;;;;;;;;;;;;21.60;64.30;99271.75;5055326;28;861;-59
2021/07/30 00:39:19;;;;;;;;;;;;;;;21.66;64.17;99268.22;5055235;28;842;-59
2021/07/30 00:41:46;;;;;;;;;;;;;;;21.72;64.03;99269.88;5055205;28;799;-59
2021/07/30 00:44:12;;;;;;;;;;;;;;;21.75;64.01;99268.88;5055163;28;847;-59
2021/07/30 00:46:39;;;;;;;;;;;;;;;21.74;63.95;99270.16;5055150;28;842;-59
2021/07/30 00:49:06;;;;;;;;;;;;;;;21.72;64.02;99269.88;5055084;28;874;-59
2021/07/30 00:51:34;;;;;;;;;;;;;;;21.70;64.24;99277.22;5054870;28;1957;-59
2021/07/30 00:54:01;;;;;;;;;;;;;;;21.63;64.19;99272.03;5054811;28;871;-59
2021/07/30 00:56:29;;;;;;;;;;;;;;;21.60;64.28;99270.97;5054963;28;811;-59
2021/07/30 00:58:57;;;;;;;;;;;;;;;21.55;64.19;99269.66;5054837;28;846;-59
2021/07/30 01:01:23;;;;;;;;;;;;;;;21.40;64.56;99268.88;5054804;28;882;-59
2021/07/30 01:03:49;;;;;;;;;;;;;;;21.26;64.70;99259.25;5054819;28;854;-59
2021/07/30 01:06:16;;;;;;;;;;;;;;;21.30;64.97;99262.63;5054749;28;803;-59
2021/07/30 01:08:43;;;;;;;;;;;;;;;21.43;64.67;99261.56;5054703;28;858;-59
2021/07/30 01:11:09;;;;;;;;;;;;;;;21.54;64.76;99262.47;5054568;28;1894;-59
2021/07/30 01:13:36;;;;;;;;;;;;;;;21.61;64.73;99261.25;5054698;28;975;-59
2021/07/30 01:16:04;;;;;;;;;;;;;;;21.63;64.97;99258.72;5054872;28;1244;-59
2021/07/30 01:18:32;;;;;;;;;;;;;;;21.63;65.06;99260.78;5054461;28;911;-59
2021/07/30 01:21:18;;;;;;;;;;;;;;;21.66;64.90;99263.38;5054395;28;831;-59
2021/07/30 01:23:46;;;;;;;;;;;;;;;21.68;65.13;99254.44;5054215;28;934;-59
2021/07/30 01:26:14;;;;;;;;;;;;;;;21.66;65.37;99251.34;5054254;28;879;-59
2021/07/30 01:28:41;;;;;;;;;;;;;;;21.61;65.36;99252.81;5054347;28;882;-59
2021/07/30 01:31:08;;;;;;;;;;;;;;;21.57;65.47;99250.25;5054154;28;1975;-59
2021/07/30 01:33:35;;;;;;;;;;;;;;;21.53;65.80;99251.69;5054343;28;803;-59
2021/07/30 01:36:03;;;;;;;;;;;;;;;21.50;65.89;99250.66;5054136;28;878;-59
2021/07/30 01:38:30;;;;;;;;;;;;;;;21.49;66.16;99253.97;5054193;28;898;-58
2021/07/30 01:41:08;;;;;;;;;;;;;;;21.43;66.34;99256.69;5053474;28;842;-59
2021/07/30 01:43:39;;;;;;;;;;;;;;;21.37;66.55;99250.97;5054151;28;901;-59
2021/07/30 01:46:07;;;;;;;;;;;;;;;21.35;66.66;99250.69;5036345;28;809;-59
2021/07/30 01:48:34;;;;;;;;;;;;;;;21.32;66.88;99253.72;5036010;28;1280;-59
2021/07/30 01:51:02;;;;;;;;;;;;;;;21.30;66.89;99248.56;5053896;28;1867;-59
2021/07/30 01:53:27;;;;;;;;;;;;;;;21.25;67.01;99248.50;5053682;28;946;-59
2021/07/30 01:55:54;;;;;;;;;;;;;;;21.21;67.08;99246.66;5054111;28;803;-59
2021/07/30 01:58:22;;;;;;;;;;;;;;;21.18;67.04;99241.25;5053864;28;870;-59
2021/07/30 02:00:48;;;;;;;;;;;;;;;21.16;67.49;99260.63;5053736;28;890;-59
2021/07/30 02:03:15;;;;;;;;;;;;;;;21.13;67.43;99253.19;5053687;28;802;-59
2021/07/30 02:05:42;;;;;;;;;;;;;;;21.04;67.74;99253.28;5053678;28;799;-59
2021/07/30 02:08:08;;;;;;;;;;;;;;;20.96;68.15;99261.38;5035728;28;1271;-59
2021/07/30 02:10:35;;;;;;;;;;;;;;;20.86;68.61;99245.88;5053753;28;1913;-59
2021/07/30 02:15:47;;;;;;;;;;;;;;;20.70;69.17;99256.38;5053436;28;1342;-59
2021/07/30 02:18:14;;;;;;;;;;;;;;;20.63;69.32;99265.16;5053541;28;1038;-59
2021/07/30 02:20:41;;;;;;;;;;;;;;;20.59;69.53;99267.41;5053361;28;931;-59
2021/07/30 02:23:08;;;;;;;;;;;;;;;20.58;69.57;99269.44;5053451;28;830;-59
2021/07/30 02:25:35;;;;;;;;;;;;;;;20.62;69.69;99272.06;5053376;28;851;-59
2021/07/30 02:28:02;;;;;;;;;;;;;;;20.63;69.64;99272.81;5053398;28;870;-59
2021/07/30 02:30:29;;;;;;;;;;;;;;;20.63;69.78;99267.97;5053292;28;1910;-59
2021/07/30 02:32:56;;;;;;;;;;;;;;;20.61;69.63;99262.06;5053270;28;890;-59
2021/07/30 02:35:22;;;;;;;;;;;;;;;20.57;69.69;99259.47;5053160;28;877;-59
2021/07/30 02:37:49;;;;;;;;;;;;;;;20.53;69.80;99260.91;5053583;28;871;-59
2021/07/30 02:40:16;;;;;;;;;;;;;;;20.45;69.85;99274.53;5053185;28;862;-59
2021/07/30 02:42:43;;;;;;;;;;;;;;;20.35;70.18;99271.03;5053428;28;795;-59
2021/07/30 02:45:10;;;;;;;;;;;;;;;20.35;70.65;99267.47;5053366;28;925;-59
2021/07/30 02:47:37;;;;;;;;;;;;;;;20.30;70.63;99274.53;5053125;28;898;-59
2021/07/30 02:50:04;;;;;;;;;;;;;;;20.24;70.54;99270.06;5052831;28;1948;-59
2021/07/30 02:52:30;;;;;;;;;;;;;;;20.13;70.87;99268.59;5052049;28;838;-59
2021/07/30 02:54:57;;;;;;;;;;;;;;;20.02;71.21;99273.25;5053169;28;779;-59
2021/07/30 02:57:24;;;;;;;;;;;;;;;19.94;71.29;99267.97;5053259;28;854;-59
2021/07/30 02:59:50;;;;;;;;;;;;;;;19.87;71.70;99259.19;5034957;28;599;-59
2021/07/30 03:02:17;;;;;;;;;;;;;;;19.82;71.76;99268.25;5053432;28;795;-59
2021/07/30 03:04:44;;;;;;;;;;;;;;;19.76;71.95;99260.50;5052520;28;878;-59
2021/07/30 03:07:11;;;;;;;;;;;;;;;19.76;71.97;99252.09;5052688;28;810;-59
2021/07/30 03:09:37;;;;;;;;;;;;;;;19.81;71.89;99258.28;5052303;28;1956;-59
2021/07/30 03:12:05;;;;;;;;;;;;;;;19.85;71.81;99259.66;5052555;28;862;-59
2021/07/30 03:14:31;;;;;;;;;;;;;;;19.93;71.55;99258.03;5052652;28;876;-59
2021/07/30 03:16:59;;;;;;;;;;;;;;;20.02;71.31;99265.59;5012647;28;854;-59
2021/07/30 03:19:26;;;;;;;;;;;;;;;20.08;71.05;99272.09;5012517;28;846;-59
2021/07/30 03:21:53;;;;;;;;;;;;;;;20.15;70.93;99270.94;5012499;28;807;-58
2021/07/30 03:24:19;;;;;;;;;;;;;;;20.23;70.76;99266.50;5012788;28;902;-59
2021/07/30 03:26:46;;;;;;;;;;;;;;;20.39;70.49;99259.63;5012425;28;824;-58
2021/07/30 03:29:13;;;;;;;;;;;;;;;20.55;69.97;99276.00;5012525;28;842;-59
2021/07/30 03:31:40;;;;;;;;;;;;;;;20.68;69.79;99277.78;5012276;28;1910;-59
2021/07/30 03:34:07;;;;;;;;;;;;;;;20.77;69.26;99277.66;5012356;28;819;-59
2021/07/30 03:36:34;;;;;;;;;;;;;;;20.91;68.59;99273.28;5012430;28;853;-58
2021/07/30 03:39:00;;;;;;;;;;;;;;;21.07;68.31;99278.38;5012349;28;1008;-59
2021/07/30 03:41:28;;;;;;;;;;;;;;;21.19;67.88;99271.69;5012205;28;881;-59
2021/07/30 03:43:55;;;;;;;;;;;;;;;21.36;67.50;99266.28;5012174;28;847;-59
2021/07/30 03:46:21;;;;;;;;;;;;;;;21.52;67.01;99264.22;5012228;28;842;-59
2021/07/30 03:48:48;;;;;;;;;;;;;;;21.71;66.48;99264.72;5012145;28;850;-59
2021/07/30 03:51:14;;;;;;;;;;;;;;;21.89;65.87;99269.28;5011921;28;1915;-59
2021/07/30 03:53:41;;;;;;;;;;;;;;;22.08;65.26;99273.31;5012017;28;851;-59
2021/07/30 03:56:15;;;;;;;;;;;;;;;22.28;64.61;99271.78;5010927;28;890;-59
2021/07/30 03:58:42;;;;;;;;;;;;;;;22.46;64.60;99265.81;5011875;28;918;-59
2021/07/30 04:01:09;;;;;;;;;;;;;;;22.66;64.17;99267.00;5012114;28;1637;-59
2021/07/30 04:03:36;;;;;;;;;;;;;;;22.88;63.43;99261.56;5011684;28;906;-59
2021/07/30 04:06:02;;;;;;;;;;;;;;;23.15;62.89;99251.78;5027004;28;846;-59
2021/07/30 04:08:29;;;;;;;;;;;;;;;23.41;62.01;99262.19;5011939;28;962;-59
2021/07/30 04:10:57;;;;;;;;;;;;;;;23.67;61.24;99261.28;5012013;28;1886;-59
2021/07/30 04:13:24;;;;;;;;;;;;;;;23.96;60.91;99269.38;5011774;28;983;-58
2021/07/30 04:15:51;;;;;;;;;;;;;;;24.13;59.65;99258.13;5033101;28;1233;-59
2021/07/30 04:18:18;;;;;;;;;;;;;;;24.20;59.48;99262.50;5051409;28;850;-59
2021/07/30 04:20:45;;;;;;;;;;;;;;;24.37;59.45;99254.06;5051377;28;827;-59
2021/07/30 04:23:12;;;;;;;;;;;;;;;24.48;58.71;99265.38;5051376;28;783;-59
2021/07/30 04:25:41;;;;;;;;;;;;;;;24.72;58.45;99270.53;5051255;28;946;-59
2021/07/30 04:28:08;;;;;;;;;;;;;;;24.84;57.97;99269.25;5051256;28;905;-59
2021/07/30 04:30:34;;;;;;;;;;;;;;;24.82;57.58;99280.31;5051206;28;1901;-59
2021/07/30 04:33:00;;;;;;;;;;;;;;;24.68;57.74;99272.09;5051281;28;936;-59
2021/07/30 04:35:27;;;;;;;;;;;;;;;24.61;57.87;99273.38;5051270;28;1176;-59
2021/07/30 04:37:56;;;;;;;;;;;;;;;24.72;58.17;99272.59;5051082;28;907;-59
2021/07/30 04:40:23;;;;;;;;;;;;;;;24.85;57.61;99275.69;5051179;28;798;-59
2021/07/30 04:42:50;;;;;;;;;;;;;;;24.88;57.23;99279.53;5051075;28;930;-59
2021/07/30 04:45:16;;;;;;;;;;;;;;;24.75;57.09;99275.19;5033318;28;894;-59
2021/07/30 04:47:43;;;;;;;;;;;;;;;24.61;57.48;99282.59;5051159;28;823;-59
2021/07/30 04:50:09;;;;;;;;;;;;;;;24.49;57.84;99277.47;5051243;28;1949;-59
2021/07/30 04:52:35;;;;;;;;;;;;;;;24.42;57.96;99278.72;5051200;28;827;-59
2021/07/30 04:55:02;;;;;;;;;;;;;;;24.41;58.07;99277.94;5051114;28;882;-59
2021/07/30 04:57:29;;;;;;;;;;;;;;;24.60;57.67;99286.72;5051420;28;815;-59
2021/07/30 04:59:55;;;;;;;;;;;;;;;24.75;56.81;99288.50;5051209;28;819;-59
2021/07/30 05:02:22;;;;;;;;;;;;;;;24.69;56.90;99293.38;5051208;28;851;-59
2021/07/30 05:04:49;;;;;;;;;;;;;;;24.72;56.80;99290.31;5051234;28;807;-59
2021/07/30 05:07:16;;;;;;;;;;;;;;;24.79;56.96;99289.03;5051173;28;807;-59
2021/07/30 05:14:53;;;;;;;;;;;;;;;25.39;56.28;99295.19;5491050;22;1690;-59
2021/07/30 05:17:20;;;;;;;;;;;;;;;25.54;56.15;99296.94;5073638;28;868;-59
2021/07/30 05:19:46;;;;;;;;;;;;;;;25.65;56.09;99297.69;5074794;28;999;-59
2021/07/30 05:22:13;;;;;;;;;;;;;;;25.69;56.61;99297.41;5074450;28;1043;-59
2021/07/30 05:24:39;;;;;;;;;;;;;;;25.79;56.17;99295.81;5074570;28;864;-59
2021/07/30 05:27:06;;;;;;;;;;;;;;;26.25;55.58;99307.75;5074431;28;869;-59
2021/07/30 05:29:32;;;;;;;;;;;;;;;27.28;53.23;99300.81;5074436;28;813;-59
2021/07/30 05:31:59;;;;;;;;;;;;;;;28.09;51.05;99298.06;5074250;28;1917;-59
2021/07/30 05:34:26;;;;;;;;;;;;;;;28.42;49.53;99298.91;5074307;28;816;-59
2021/07/30 05:36:53;;;;;;;;;;;;;;;28.88;48.57;99307.53;5074177;28;920;-59
2021/07/30 05:39:19;;;;;;;;;;;;;;;29.22;47.40;99302.06;5074254;28;841;-59
2021/07/30 05:41:46;;;;;;;;;;;;;;;29.80;46.28;99297.59;5074160;28;881;-59
2021/07/30 05:44:13;;;;;;;;;;;;;;;30.76;44.12;99298.34;5074061;28;861;-59
2021/07/30 05:46:40;;;;;;;;;;;;;;;31.97;41.28;99292.56;5073996;28;945;-59
2021/07/30 05:49:06;;;;;;;;;;;;;;;32.57;40.18;99294.13;5074366;28;849;-59
2021/07/30 05:51:38;;;;;;;;;;;;;;;32.30;40.89;99302.22;5073843;28;1968;-59
2021/07/30 05:54:05;;;;;;;;;;;;;;;32.50;41.42;99292.00;5073879;28;893;-59
2021/07/30 05:56:31;;;;;;;;;;;;;;;33.08;39.91;99301.06;5073905;28;917;-59
2021/07/30 05:58:58;;;;;;;;;;;;;;;33.87;38.56;99289.69;5074162;28;814;-59
2021/07/30 06:01:24;;;;;;;;;;;;;;;34.62;36.70;99289.88;5073825;28;818;-59
2021/07/30 06:03:51;;;;;;;;;;;;;;;34.87;36.00;99297.78;5073850;28;861;-59
2021/07/30 06:06:18;;;;;;;;;;;;;;;35.01;35.34;99298.97;5073645;28;861;-59
2021/07/30 06:08:45;;;;;;;;;;;;;;;35.37;35.17;99298.47;5073863;28;845;-59
2021/07/30 06:11:11;;;;;;;;;;;;;;;35.68;34.34;99297.47;5073504;28;1963;-59
2021/07/30 06:13:38;;;;;;;;;;;;;;;35.84;34.22;99295.16;5073646;28;945;-59
2021/07/30 06:16:13;;;;;;;;;;;;;;;36.05;34.07;99295.47;5073313;28;1458;-60
2021/07/30 06:18:39;;;;;;;;;;;;;;;36.61;32.25;99302.78;5073517;28;802;-59
2021/07/30 06:21:06;;;;;;;;;;;;;;;37.03;32.22;99299.66;5073375;28;822;-59
2021/07/30 06:23:33;;;;;;;;;;;;;;;37.19;31.63;99292.28;5073654;28;821;-59
2021/07/30 06:26:00;;;;;;;;;;;;;;;37.63;30.42;99284.03;5073330;28;1030;-59
2021/07/30 06:28:26;;;;;;;;;;;;;;;38.18;30.12;99285.97;5073506;28;821;-59
2021/07/30 06:30:53;;;;;;;;;;;;;;;38.42;29.72;99288.34;5073187;28;1975;-59
2021/07/30 06:33:22;;;;;;;;;;;;;;;38.49;29.25;99284.53;5073292;28;856;-59
2021/07/30 06:35:50;;;;;;;;;;;;;;;38.52;29.15;99289.88;5073086;28;888;-59
2021/07/30 06:38:16;;;;;;;;;;;;;;;38.77;29.04;99291.59;5073165;28;995;-59
2021/07/30 06:40:46;;;;;;;;;;;;;;;38.90;28.52;99290.31;5072951;28;1011;-60
2021/07/30 06:43:13;;;;;;;;;;;;;;;38.98;28.07;99288.00;5072983;28;896;-59
2021/07/30 06:45:40;;;;;;;;;;;;;;;39.14;28.08;99285.50;5072804;28;894;-60
2021/07/30 06:48:06;;;;;;;;;;;;;;;39.01;27.58;99278.13;5072873;28;877;-60
2021/07/30 06:50:33;;;;;;;;;;;;;;;38.98;27.17;99282.22;5072811;28;1897;-59
2021/07/30 06:53:00;;;;;;;;;;;;;;;38.95;27.10;99281.34;5072735;28;814;-60
2021/07/30 06:55:26;;;;;;;;;;;;;;;39.12;27.53;99279.59;5072713;28;900;-60
2021/07/30 06:57:53;;;;;;;;;;;;;;;38.92;26.14;99281.78;5072698;28;809;-60
2021/07/30 07:00:20;;;;;;;;;;;;;;;39.07;26.70;99274.88;5072682;28;841;-60
2021/07/30 07:02:46;;;;;;;;;;;;;;;39.30;26.05;99275.03;5072551;28;865;-60
2021/07/30 07:05:16;;;;;;;;;;;;;;;39.24;26.04;99270.97;5072809;28;888;-60
2021/07/30 07:07:43;;;;;;;;;;;;;;;39.52;25.53;99267.16;5072434;28;886;-60
2021/07/30 07:10:10;;;;;;;;;;;;;;;39.34;26.57;99263.75;5072284;28;1910;-60
2021/07/30 07:12:37;;;;;;;;;;;;;;;38.55;27.00;99265.53;5072254;28;978;-60
2021/07/30 07:15:04;;;;;;;;;;;;;;;39.10;27.04;99267.88;5072108;28;1226;-59
2021/07/30 07:17:31;;;;;;;;;;;;;;;39.79;25.17;99269.66;5072347;28;813;-59
2021/07/30 07:19:58;;;;;;;;;;;;;;;40.13;25.06;99270.41;5072231;28;877;-60
2021/07/30 07:22:24;;;;;;;;;;;;;;;38.62;26.84;99269.59;5070905;28;1299;-59
2021/07/30 07:24:51;;;;;;;;;;;;;;;37.14;29.55;99276.03;5072325;28;857;-60
2021/07/30 07:27:18;;;;;;;;;;;;;;;36.01;31.93;99275.00;5072103;28;846;-59
2021/07/30 07:29:44;;;;;;;;;;;;;;;35.07;34.12;99272.91;5072024;28;1910;-59
2021/07/30 07:32:11;;;;;;;;;;;;;;;34.41;35.58;99266.50;5072104;28;829;-59
2021/07/30 07:34:36;;;;;;;;;;;;;;;34.00;36.81;99272.22;5071975;28;910;-59
2021/07/30 07:37:03;;;;;;;;;;;;;;;33.76;37.19;99276.53;5071844;28;1008;-59
2021/07/30 07:39:31;;;;;;;;;;;;;;;34.47;37.28;99285.00;5071343;28;940;-59
2021/07/30 07:41:57;;;;;;;;;;;;;;;35.86;33.45;99278.81;5071756;28;940;-59
2021/07/30 07:44:25;;;;;;;;;;;;;;;36.55;31.57;99280.03;5071794;28;850;-59
2021/07/30 07:46:52;;;;;;;;;;;;;;;36.66;31.43;99276.63;5071789;28;944;-59
2021/07/30 07:49:19;;;;;;;;;;;;;;;38.29;29.60;99273.03;5070610;28;857;-60
2021/07/30 07:51:45;;;;;;;;;;;;;;;39.81;27.56;99269.03;5071770;28;1882;-59
2021/07/30 07:54:12;;;;;;;;;;;;;;;40.83;26.26;99274.09;5071949;28;806;-59
2021/07/30 07:56:38;;;;;;;;;;;;;;;41.39;25.36;99265.19;5071666;28;881;-59
2021/07/30 07:59:05;;;;;;;;;;;;;;;42.07;24.54;99266.22;5071733;28;813;-59
2021/07/30 08:01:32;;;;;;;;;;;;;;;42.49;24.10;99272.91;5071729;28;872;-60
2021/07/30 08:03:59;;;;;;;;;;;;;;;42.56;23.82;99265.28;5071647;28;826;-60
2021/07/30 08:06:25;;;;;;;;;;;;;;;42.61;23.73;99261.97;5071616;28;865;-60
2021/07/30 08:08:52;;;;;;;;;;;;;;;42.65;23.91;99258.53;5071618;28;798;-60
2021/07/30 08:11:19;;;;;;;;;;;;;;;42.76;23.27;99262.72;5071290;28;1882;-60
2021/07/30 08:13:46;;;;;;;;;;;;;;;42.63;22.97;99262.09;5071820;28;930;-60
2021/07/30 08:16:12;;;;;;;;;;;;;;;42.39;23.28;99264.38;5071313;28;1226;-60
2021/07/30 08:18:38;;;;;;;;;;;;;;;42.39;23.31;99263.63;5071439;28;857;-60
2021/07/30 08:21:06;;;;;;;;;;;;;;;42.23;23.35;99257.69;5071508;28;837;-59
2021/07/30 08:23:32;;;;;;;;;;;;;;;42.57;23.22;99252.25;5071664;28;814;-60
2021/07/30 08:25:59;;;;;;;;;;;;;;;42.81;23.54;99256.50;5071628;28;941;-59
2021/07/30 08:28:26;;;;;;;;;;;;;;;42.59;23.14;99255.28;5070107;28;1194;-59
2021/07/30 08:30:54;;;;;;;;;;;;;;;42.83;23.39;99247.91;5071271;28;1985;-59
2021/07/30 08:33:20;;;;;;;;;;;;;;;43.23;22.78;99248.53;5071315;28;867;-59
2021/07/30 08:35:46;;;;;;;;;;;;;;;43.06;22.82;99246.16;5071332;28;885;-60
2021/07/30 08:38:13;;;;;;;;;;;;;;;42.99;22.29;99245.09;5071338;28;806;-59
2021/07/30 08:40:40;;;;;;;;;;;;;;;43.14;22.35;99249.50;5071253;28;943;-59
2021/07/30 08:43:11;;;;;;;;;;;;;;;43.29;22.08;99241.53;5071252;28;865;-59
2021/07/30 08:45:38;;;;;;;;;;;;;;;43.46;22.30;99238.03;5071236;28;869;-60
2021/07/30 08:48:03;;;;;;;;;;;;;;;43.49;21.85;99239.66;5071196;28;887;-60
2021/07/30 08:50:31;;;;;;;;;;;;;;;43.21;21.88;99238.94;5070001;28;1882;-59
2021/07/30 08:53:02;;;;;;;;;;;;;;;43.10;21.89;99237.66;5075005;28;893;-59
2021/07/30 08:55:30;;;;;;;;;;;;;;;42.85;22.27;99226.94;5075112;28;841;-59
2021/07/30 08:57:56;;;;;;;;;;;;;;;42.77;22.67;99224.31;5074917;28;896;-60
2021/07/30 09:00:23;;;;;;;;;;;;;;;42.89;23.37;99226.38;5075016;28;820;-59
2021/07/30 09:02:50;;;;;;;;;;;;;;;43.21;22.56;99222.25;5073684;28;941;-60
2021/07/30 09:05:27;;;;;;;;;;;;;;;43.50;22.46;99229.53;5074941;28;896;-59
2021/07/30 09:07:55;;;;;;;;;;;;;;;43.59;22.12;99222.69;5074756;28;881;-60
2021/07/30 09:10:35;;;;;;;;;;;;;;;42.98;22.89;99214.53;5074693;28;1949;-59
2021/07/30 09:13:21;;;;;;;;;;;;;;;42.46;23.16;99209.56;5074699;28;970;-60
2021/07/30 09:16:08;;;;;;;;;;;;;;;41.43;25.36;99218.28;5072824;28;1545;-60
2021/07/30 09:18:36;;;;;;;;;;;;;;;41.40;25.13;99216.69;5074543;28;1965;-60
2021/07/30 09:21:15;;;;;;;;;;;;;;;41.99;24.30;99205.59;5073328;28;1377;-59
2021/07/30 09:23:49;;;;;;;;;;;;;;;42.25;24.22;99199.75;5074342;28;909;-60
2021/07/30 09:26:28;;;;;;;;;;;;;;;42.46;24.07;99204.50;5074510;28;900;-60
2021/07/30 09:28:56;;;;;;;;;;;;;;;42.17;23.39;99205.84;5074677;28;859;-60
2021/07/30 09:31:36;;;;;;;;;;;;;;;42.27;23.90;99210.69;5074324;28;1914;-60
2021/07/30 09:34:12;;;;;;;;;;;;;;;42.30;23.98;99207.25;5074418;28;818;-60
2021/07/30 09:36:44;;;;;;;;;;;;;;;42.05;23.57;99204.41;5074283;28;814;-60
2021/07/30 09:39:12;;;;;;;;;;;;;;;41.97;23.88;99202.56;5074356;28;865;-60
2021/07/30 09:41:38;;;;;;;;;;;;;;;41.70;23.96;99196.66;5074065;28;1077;-60
2021/07/30 09:44:06;;;;;;;;;;;;;;;41.48;25.26;99193.94;5074137;28;917;-60
2021/07/30 09:46:32;;;;;;;;;;;;;;;41.25;24.79;99199.81;5074140;28;912;-60
2021/07/30 09:48:59;;;;;;;;;;;;;;;41.10;24.55;99190.28;5074022;28;826;-60
2021/07/30 09:51:27;;;;;;;;;;;;;;;41.01;25.06;99186.16;5073981;28;1890;-60
2021/07/30 09:53:54;;;;;;;;;;;;;;;40.92;24.19;99177.59;5073896;28;870;-60
2021/07/30 09:56:21;;;;;;;;;;;;;;;40.96;25.37;99172.78;5073977;28;833;-59
2021/07/30 09:58:49;;;;;;;;;;;;;;;40.74;26.00;99178.00;5073801;28;909;-60
2021/07/30 10:01:18;;;;;;;;;;;;;;;40.26;25.59;99170.66;5073886;28;822;-59
2021/07/30 10:03:46;;;;;;;;;;;;;;;39.84;26.21;99171.59;5072150;28;1167;-60
2021/07/30 10:06:13;;;;;;;;;;;;;;;39.78;26.64;99169.06;5073785;28;932;-60
2021/07/30 10:08:41;;;;;;;;;;;;;;;39.78;27.11;99171.97;5072461;28;865;-59
2021/07/30 10:11:10;;;;;;;;;;;;;;;39.73;26.25;99162.28;5073848;28;1941;-60
2021/07/30 10:13:46;;;;;;;;;;;;;;;39.84;26.81;99160.00;5073674;28;949;-60
2021/07/30 10:16:13;;;;;;;;;;;;;;;39.92;26.29;99151.88;5073360;28;1257;-59
2021/07/30 10:18:42;;;;;;;;;;;;;;;39.98;26.46;99155.91;5073518;28;825;-59
2021/07/30 10:21:11;;;;;;;;;;;;;;;40.02;26.25;99149.63;5073644;28;873;-59
2021/07/30 10:23:39;;;;;;;;;;;;;;;40.08;26.35;99143.50;5073374;28;881;-59
2021/07/30 10:26:06;;;;;;;;;;;;;;;39.95;26.20;99148.50;5073290;28;948;-59
2021/07/30 10:28:34;;;;;;;;;;;;;;;39.75;26.23;99147.19;5073330;28;838;-59
2021/07/30 10:31:06;;;;;;;;;;;;;;;39.77;26.08;99141.53;5073101;28;1977;-59
2021/07/30 10:33:40;;;;;;;;;;;;;;;39.96;26.21;99132.66;5073118;28;983;-60
2021/07/30 10:36:06;;;;;;;;;;;;;;;40.07;25.68;99139.06;5073048;28;961;-59
2021/07/30 10:38:34;;;;;;;;;;;;;;;39.91;26.38;99127.25;5073089;28;826;-60
2021/07/30 10:41:07;;;;;;;;;;;;;;;39.94;26.43;99123.84;5071836;28;818;-60
2021/07/30 10:43:51;;;;;;;;;;;;;;;39.98;26.46;99120.47;5073123;28;849;-60
2021/07/30 10:46:18;;;;;;;;;;;;;;;40.07;25.72;99121.72;5072909;28;790;-60
2021/07/30 10:48:45;;;;;;;;;;;;;;;40.22;25.84;99121.22;5073057;28;794;-60
2021/07/30 10:51:33;;;;;;;;;;;;;;;40.31;25.75;99114.59;5072845;28;1943;-60
2021/07/30 10:54:01;;;;;;;;;;;;;;;40.41;25.58;99106.53;5072751;28;900;-60
2021/07/30 10:56:30;;;;;;;;;;;;;;;40.55;25.65;99106.63;5072769;28;929;-60
2021/07/30 10:58:57;;;;;;;;;;;;;;;40.66;24.82;99110.13;5072737;28;885;-60
2021/07/30 11:01:44;;;;;;;;;;;;;;;40.68;25.52;99104.47;5072714;28;794;-59
2021/07/30 11:04:11;;;;;;;;;;;;;;;40.84;24.73;99099.63;5072691;28;805;-60
2021/07/30 11:06:38;;;;;;;;;;;;;;;40.77;24.39;99098.53;5071241;28;1483;-59
2021/07/30 11:09:04;;;;;;;;;;;;;;;40.52;24.49;99095.53;5072435;28;821;-59
2021/07/30 11:11:52;;;;;;;;;;;;;;;40.39;24.16;99091.94;5072434;28;1886;-60
2021/07/30 11:14:19;;;;;;;;;;;;;;;40.58;24.10;99087.97;5071923;28;958;-60
2021/07/30 11:16:53;;;;;;;;;;;;;;;40.54;23.57;99093.53;5072113;28;1362;-60
2021/07/30 11:19:22;;;;;;;;;;;;;;;40.48;23.35;99089.50;5072374;28;853;-60
2021/07/30 11:21:49;;;;;;;;;;;;;;;40.86;23.34;99081.63;5072327;28;907;-60
2021/07/30 11:24:15;;;;;;;;;;;;;;;41.09;22.83;99086.59;5070965;28;766;-60
2021/07/30 11:26:42;;;;;;;;;;;;;;;41.13;22.47;99083.91;5072083;28;869;-60
2021/07/30 11:29:10;;;;;;;;;;;;;;;41.09;23.31;99077.88;5072431;28;818;-61
2021/07/30 11:31:37;;;;;;;;;;;;;;;40.73;25.10;99062.78;5072055;28;1910;-60
2021/07/30 11:34:09;;;;;;;;;;;;;;;40.51;24.82;99073.78;5071914;28;914;-60
2021/07/30 11:36:35;;;;;;;;;;;;;;;40.27;24.92;99075.94;5072368;28;779;-60
2021/07/30 11:39:02;;;;;;;;;;;;;;;40.14;25.19;99080.22;5072166;28;825;-61
2021/07/30 11:41:29;;;;;;;;;;;;;;;39.64;26.86;99081.41;5071962;28;889;-60
2021/07/30 11:43:58;;;;;;;;;;;;;;;39.63;26.79;99083.56;5070604;28;1250;-60
2021/07/30 11:46:25;;;;;;;;;;;;;;;39.64;26.92;99079.25;5072232;28;873;-61
2021/07/30 11:48:52;;;;;;;;;;;;;;;39.76;26.65;99077.16;5072060;28;829;-60
2021/07/30 11:51:21;;;;;;;;;;;;;;;39.87;26.71;99084.34;5071993;28;1885;-59
2021/07/30 11:53:48;;;;;;;;;;;;;;;39.78;26.46;99079.41;5070600;28;1782;-61
2021/07/30 11:56:19;;;;;;;;;;;;;;;39.73;26.35;99081.31;5071713;28;1060;-59
2021/07/30 11:58:56;;;;;;;;;;;;;;;39.78;26.53;99082.31;5070589;28;814;-60
2021/07/30 12:01:22;;;;;;;;;;;;;;;39.97;26.48;99079.22;5071636;28;962;-61
2021/07/30 12:04:07;;;;;;;;;;;;;;;40.00;26.20;99072.16;5071688;28;886;-60
2021/07/30 12:06:38;;;;;;;;;;;;;;;39.98;25.90;99074.16;5071529;28;850;-60
2021/07/30 12:09:06;;;;;;;;;;;;;;;40.16;25.98;99071.63;5071523;28;802;-61
2021/07/30 12:11:34;;;;;;;;;;;;;;;40.17;26.59;99070.25;5071568;28;1913;-60
2021/07/30 12:14:01;;;;;;;;;;;;;;;40.22;25.72;99074.91;5071767;28;965;-61
2021/07/30 12:16:27;;;;;;;;;;;;;;;40.17;25.34;99067.38;5071270;28;1458;-61
2021/07/30 12:18:54;;;;;;;;;;;;;;;40.03;25.92;99063.59;5071647;28;869;-61
2021/07/30 12:21:21;;;;;;;;;;;;;;;39.96;26.05;99066.09;5071411;28;833;-61
2021/07/30 12:23:48;;;;;;;;;;;;;;;40.07;25.77;99064.59;5071536;28;853;-61
2021/07/30 12:26:34;;;;;;;;;;;;;;;40.27;26.16;99073.03;5074309;28;1166;-61
2021/07/30 12:29:00;;;;;;;;;;;;;;;40.41;25.91;99057.31;5075592;28;853;-61
2021/07/30 12:31:28;;;;;;;;;;;;;;;40.61;25.87;99054.13;5075461;28;1985;-62
2021/07/30 12:34:15;;;;;;;;;;;;;;;40.49;25.27;99044.69;5075377;28;910;-61
2021/07/30 12:36:43;;;;;;;;;;;;;;;40.17;25.53;99047.88;5073928;28;1485;-61
2021/07/30 12:39:10;;;;;;;;;;;;;;;40.21;24.95;99039.44;5075390;28;605;-61
2021/07/30 12:41:37;;;;;;;;;;;;;;;40.29;24.87;99050.03;5075284;28;906;-61
2021/07/30 12:44:11;;;;;;;;;;;;;;;40.57;25.42;99031.47;5075341;28;848;-61
2021/07/30 12:46:39;;;;;;;;;;;;;;;40.55;24.76;99037.13;5075365;28;806;-60
2021/07/30 12:49:08;;;;;;;;;;;;;;;40.63;24.27;99036.88;5075193;28;969;-62
2021/07/30 12:51:35;;;;;;;;;;;;;;;40.66;24.82;99035.59;5075026;28;1955;-62
2021/07/30 12:54:09;;;;;;;;;;;;;;;40.61;23.88;99033.84;5075041;28;894;-61
2021/07/30 12:56:57;;;;;;;;;;;;;;;40.64;24.31;99026.78;5075118;28;845;-60
2021/07/30 12:59:41;;;;;;;;;;;;;;;40.94;23.99;99027.81;5075083;28;845;-60
2021/07/30 13:02:08;;;;;;;;;;;;;;;41.15;23.37;99035.53;5074919;28;889;-61
2021/07/30 13:04:34;;;;;;;;;;;;;;;41.19;23.20;99038.69;5074959;28;822;-61
2021/07/30 13:07:01;;;;;;;;;;;;;;;41.32;23.54;99033.56;5074746;28;893;-60
2021/07/30 13:09:28;;;;;;;;;;;;;;;41.29;23.57;99029.03;5074720;28;949;-61
2021/07/30 13:11:55;;;;;;;;;;;;;;;41.13;23.16;99034.66;5074741;28;1955;-61
2021/07/30 13:14:21;;;;;;;;;;;;;;;41.00;23.06;99030.31;5075035;28;1028;-61
2021/07/30 13:16:48;;;;;;;;;;;;;;;41.06;22.50;99015.44;5074627;28;1553;-61